Time;durP1;ratioP1;P1;durP2;ratioP2;P2;SDS_P1;SDS_P2;PMS_P1;PMS_P2;Temp;Humidity;BMP_temperature;BMP_pressure;BME280_temperature;BME280_humidity;BME280_pressure;Samples;Min_cycle;Max_cycle;Signal;HPM_P1;HPM_P2
2021/09/02 00:02:00;;;;;;;8.40;5.45;;;15.80;96.00;;;;;;5090353;28;20034;-86
2021/09/02 00:04:30;;;;;;;6.32;4.70;;;15.80;96.00;;;;;;5092144;28;20398;-82
2021/09/02 00:06:58;;;;;;;8.13;4.85;;;15.80;96.00;;;;;;5099968;28;20020;-84
2021/09/02 00:09:24;;;;;;;7.88;5.32;;;15.80;96.00;;;;;;5078237;28;20524;-81
2021/09/02 00:11:49;;;;;;;7.65;4.85;;;15.70;96.00;;;;;;5092272;28;20123;-83
2021/09/02 00:14:15;;;;;;;10.68;4.68;;;15.70;96.00;;;;;;5098831;28;20111;-83
2021/09/02 00:16:42;;;;;;;6.82;4.55;;;15.70;96.00;;;;;;5083761;28;20036;-82
2021/09/02 00:19:08;;;;;;;10.93;5.00;;;15.70;96.10;;;;;;5108425;28;20028;-80
2021/09/02 00:21:34;;;;;;;7.18;4.72;;;15.70;96.10;;;;;;5108661;28;20039;-82
2021/09/02 00:23:59;;;;;;;8.73;5.13;;;15.70;96.10;;;;;;5096058;28;20099;-83
2021/09/02 00:26:25;;;;;;;10.93;4.90;;;15.60;96.20;;;;;;5103137;28;20175;-82
2021/09/02 00:28:51;;;;;;;7.15;4.30;;;15.60;96.10;;;;;;5084837;28;20065;-81
2021/09/02 00:31:16;;;;;;;7.32;4.90;;;15.50;96.10;;;;;;5098383;28;20037;-83
2021/09/02 00:33:42;;;;;;;5.88;4.47;;;15.50;96.30;;;;;;5087370;28;20028;-84
2021/09/02 00:36:08;;;;;;;9.95;5.10;;;15.40;96.30;;;;;;5094504;28;20027;-83
2021/09/02 00:38:33;;;;;;;7.45;4.50;;;15.40;96.40;;;;;;5079135;28;20020;-83
2021/09/02 00:40:59;;;;;;;8.25;5.03;;;15.40;96.50;;;;;;5103504;28;20023;-82
2021/09/02 00:43:26;;;;;;;9.95;4.80;;;15.50;96.40;;;;;;5087241;28;20051;-82
2021/09/02 00:45:55;;;;;;;8.23;4.38;;;15.50;96.30;;;;;;5091602;28;20050;-81
2021/09/02 00:48:21;;;;;;;10.00;4.57;;;15.50;96.20;;;;;;5095947;28;20028;-81
2021/09/02 00:50:49;;;;;;;6.80;4.80;;;15.50;96.20;;;;;;5083716;28;20038;-81
2021/09/02 00:53:14;;;;;;;6.90;4.55;;;15.40;96.20;;;;;;5095045;28;20031;-81
2021/09/02 00:55:41;;;;;;;10.65;4.45;;;15.40;96.30;;;;;;5098295;28;20110;-81
2021/09/02 00:58:07;;;;;;;6.60;4.45;;;15.30;96.40;;;;;;5080552;28;20119;-81
2021/09/02 01:00:32;;;;;;;6.65;4.20;;;15.30;96.40;;;;;;5094540;28;20066;-82
2021/09/02 01:02:58;;;;;;;8.30;4.68;;;15.30;96.50;;;;;;5105308;28;20032;-81
2021/09/02 01:05:24;;;;;;;8.55;5.15;;;15.30;96.40;;;;;;5077369;28;20039;-82
2021/09/02 01:07:50;;;;;;;8.32;4.75;;;15.30;96.70;;;;;;5091780;28;20020;-80
2021/09/02 01:10:16;;;;;;;7.70;4.68;;;15.20;96.50;;;;;;5080567;28;20123;-81
2021/09/02 01:12:47;;;;;;;9.10;4.93;;;15.20;96.50;;;;;;5110795;28;20106;-81
2021/09/02 01:15:21;;;;;;;8.60;5.03;;;15.10;96.60;;;;;;5086709;28;20015;-81
2021/09/02 01:17:49;;;;;;;9.55;4.80;;;15.10;96.60;;;;;;5083475;28;20629;-81
2021/09/02 01:20:17;;;;;;;9.90;4.53;;;15.10;96.60;;;;;;5111873;28;20047;-81
2021/09/02 01:22:48;;;;;;;7.47;4.97;;;15.10;96.70;;;;;;5097481;28;20361;-81
2021/09/02 01:25:17;;;;;;;7.70;5.00;;;15.20;96.60;;;;;;5077354;28;20521;-81
2021/09/02 01:27:45;;;;;;;8.90;4.47;;;15.10;96.50;;;;;;5108857;28;20027;-81
2021/09/02 01:30:13;;;;;;;7.60;4.95;;;15.10;96.60;;;;;;5079823;28;20173;-81
2021/09/02 01:32:44;;;;;;;9.15;5.05;;;15.10;96.60;;;;;;5077115;28;20047;-81
2021/09/02 01:35:12;;;;;;;8.15;5.05;;;15.00;96.60;;;;;;5103650;28;20024;-81
2021/09/02 01:37:47;;;;;;;11.55;4.82;;;15.00;96.70;;;;;;5091614;28;20116;-82
2021/09/02 01:40:28;;;;;;;8.00;4.70;;;15.00;96.70;;;;;;5078962;28;20028;-82
2021/09/02 01:42:53;;;;;;;7.60;5.50;;;15.00;96.80;;;;;;5083629;28;20034;-83
2021/09/02 01:45:20;;;;;;;8.48;4.97;;;15.00;96.70;;;;;;5097131;28;20032;-84
2021/09/02 01:47:47;;;;;;;7.97;5.15;;;15.00;96.70;;;;;;5097151;28;20024;-83
2021/09/02 01:50:21;;;;;;;7.25;5.07;;;15.00;96.60;;;;;;5079752;28;20526;-83
2021/09/02 01:52:52;;;;;;;8.57;5.07;;;15.10;96.40;;;;;;5097013;28;20472;-82
2021/09/02 01:55:19;;;;;;;8.05;4.95;;;15.00;96.40;;;;;;5086316;28;20073;-82
2021/09/02 01:57:45;;;;;;;6.70;4.50;;;15.00;96.50;;;;;;5109266;28;20029;-81
2021/09/02 02:00:13;;;;;;;8.75;5.10;;;15.00;96.50;;;;;;5079532;28;20024;-80
2021/09/02 02:02:39;;;;;;;7.85;4.93;;;15.00;96.40;;;;;;5091918;28;20039;-83
2021/09/02 02:05:06;;;;;;;7.35;5.22;;;14.90;96.50;;;;;;5076032;28;20073;-82
2021/09/02 02:07:32;;;;;;;9.10;4.90;;;14.90;96.50;;;;;;5094428;28;20495;-82
2021/09/02 02:09:58;;;;;;;7.72;4.90;;;14.80;96.50;;;;;;5110236;28;20031;-82
2021/09/02 02:12:23;;;;;;;8.27;4.90;;;14.80;96.50;;;;;;5079390;28;20046;-82
2021/09/02 02:14:49;;;;;;;7.50;5.03;;;14.80;96.80;;;;;;5090858;28;20020;-82
2021/09/02 02:17:15;;;;;;;8.50;5.05;;;14.80;96.60;;;;;;5103755;28;20044;-82
2021/09/02 02:19:41;;;;;;;9.32;4.57;;;14.80;96.60;;;;;;5083443;28;20020;-83
2021/09/02 02:22:06;;;;;;;7.55;4.65;;;14.80;96.40;;;;;;5089626;28;20063;-81
2021/09/02 02:24:32;;;;;;;8.40;4.85;;;14.80;96.30;;;;;;5080513;28;20023;-83
2021/09/02 02:26:58;;;;;;;8.43;5.35;;;14.80;96.20;;;;;;5096203;28;20024;-83
2021/09/02 02:29:24;;;;;;;7.68;4.93;;;14.80;96.30;;;;;;5102719;28;20028;-82
2021/09/02 02:31:50;;;;;;;8.95;5.05;;;14.80;96.30;;;;;;5090386;28;20034;-82
2021/09/02 02:34:16;;;;;;;12.20;5.28;;;14.70;96.30;;;;;;5078580;28;20051;-83
2021/09/02 02:36:42;;;;;;;8.75;5.07;;;14.70;96.40;;;;;;5090290;28;20027;-83
2021/09/02 02:39:07;;;;;;;8.77;5.28;;;14.60;96.50;;;;;;5086667;28;20020;-82
2021/09/02 02:41:33;;;;;;;8.05;4.70;;;14.60;96.60;;;;;;5103317;28;20095;-83
2021/09/02 02:43:59;;;;;;;9.00;5.47;;;14.60;96.60;;;;;;5087072;28;20019;-83
2021/09/02 02:46:25;;;;;;;9.10;5.03;;;14.50;96.60;;;;;;5088528;28;20024;-83
2021/09/02 02:48:51;;;;;;;8.32;5.07;;;14.50;96.70;;;;;;5101251;28;20028;-88
2021/09/02 02:51:16;;;;;;;10.13;5.43;;;14.50;96.80;;;;;;5094162;28;20107;-86
2021/09/02 02:53:42;;;;;;;8.27;5.00;;;14.50;96.90;;;;;;5092876;28;20047;-87
2021/09/02 02:56:08;;;;;;;8.52;4.88;;;14.50;96.80;;;;;;5092816;28;20110;-86
2021/09/02 02:58:33;;;;;;;8.55;5.25;;;14.50;96.70;;;;;;5096383;28;20385;-87
2021/09/02 03:00:59;;;;;;;8.48;5.18;;;14.50;96.70;;;;;;5079467;28;20473;-86
2021/09/02 03:03:25;;;;;;;10.55;5.85;;;14.50;96.70;;;;;;5095111;28;20020;-88
2021/09/02 03:05:50;;;;;;;9.80;5.97;;;14.50;96.60;;;;;;5089039;28;20027;-88
2021/09/02 03:08:16;;;;;;;9.18;5.25;;;14.50;96.70;;;;;;5106146;28;20027;-88
2021/09/02 03:10:42;;;;;;;9.82;5.20;;;14.50;96.60;;;;;;5104011;28;20024;-88
2021/09/02 03:13:08;;;;;;;9.50;5.70;;;14.50;96.70;;;;;;5084367;28;20042;-87
2021/09/02 03:15:34;;;;;;;7.82;5.50;;;14.40;96.70;;;;;;5088742;28;20019;-88
2021/09/02 03:18:00;;;;;;;11.55;5.85;;;14.40;96.80;;;;;;5085070;28;20068;-88
2021/09/02 03:20:26;;;;;;;10.38;5.50;;;14.40;96.80;;;;;;5079379;28;20085;-88
2021/09/02 03:22:52;;;;;;;10.93;5.85;;;14.30;96.90;;;;;;5082833;28;20040;-88
2021/09/02 03:25:18;;;;;;;10.77;5.70;;;14.30;96.90;;;;;;5078615;28;20035;-87
2021/09/02 03:27:44;;;;;;;12.02;6.20;;;14.20;97.00;;;;;;5114038;28;20035;-88
2021/09/02 03:30:11;;;;;;;9.57;5.72;;;14.20;97.00;;;;;;5102454;28;20034;-88
2021/09/02 03:32:37;;;;;;;14.55;6.47;;;14.20;97.10;;;;;;5089894;28;20038;-88
2021/09/02 03:35:07;;;;;;;10.80;6.00;;;14.20;97.10;;;;;;5077979;28;20111;-88
2021/09/02 03:37:33;;;;;;;9.63;5.60;;;14.10;97.10;;;;;;5080933;28;20035;-88
2021/09/02 03:39:59;;;;;;;15.52;5.93;;;14.10;97.20;;;;;;5076050;28;20085;-88
2021/09/02 03:42:24;;;;;;;10.35;5.97;;;14.10;97.30;;;;;;5087406;28;20122;-87
2021/09/02 03:44:50;;;;;;;11.32;6.10;;;14.10;97.20;;;;;;5081627;28;20024;-87
2021/09/02 03:47:16;;;;;;;9.63;6.00;;;14.10;97.30;;;;;;5096063;28;20453;-88
2021/09/02 03:49:41;;;;;;;11.48;6.75;;;14.00;97.30;;;;;;5086016;28;20027;-87
2021/09/02 03:52:08;;;;;;;10.40;5.70;;;14.00;97.40;;;;;;5094589;28;20032;-88
2021/09/02 03:54:33;;;;;;;11.43;6.05;;;14.00;97.40;;;;;;5093383;28;20468;-88
2021/09/02 03:56:59;;;;;;;9.95;6.85;;;14.00;97.40;;;;;;5098960;28;20073;-89
2021/09/02 03:59:25;;;;;;;10.63;6.32;;;14.00;97.40;;;;;;5100897;28;20039;-88
2021/09/02 04:01:51;;;;;;;10.52;6.40;;;14.00;97.60;;;;;;5088725;28;20031;-86
2021/09/02 04:04:16;;;;;;;10.35;5.97;;;14.00;97.40;;;;;;5087758;28;20085;-86
2021/09/02 04:06:42;;;;;;;13.43;6.40;;;13.90;97.40;;;;;;5112306;28;20059;-87
2021/09/02 04:09:08;;;;;;;12.18;5.47;;;13.90;97.50;;;;;;5100216;28;20066;-87
2021/09/02 04:11:33;;;;;;;8.48;5.75;;;13.80;97.50;;;;;;5099233;28;20484;-88
2021/09/02 04:13:59;;;;;;;12.43;6.75;;;13.80;97.50;;;;;;5099225;28;20020;-88
2021/09/02 04:16:24;;;;;;;10.38;6.20;;;13.80;97.50;;;;;;5085913;28;20101;-87
2021/09/02 04:18:50;;;;;;;12.05;6.35;;;13.80;97.50;;;;;;5094971;28;20024;-87
2021/09/02 04:21:16;;;;;;;10.23;6.15;;;13.80;97.40;;;;;;5082106;28;20020;-87
2021/09/02 04:23:43;;;;;;;12.52;6.60;;;13.80;97.40;;;;;;5089272;28;20425;-87
2021/09/02 04:26:09;;;;;;;11.45;6.43;;;13.90;97.40;;;;;;5098336;28;20487;-87
2021/09/02 04:28:36;;;;;;;9.27;6.20;;;13.80;97.40;;;;;;5084979;28;20039;-88
2021/09/02 04:31:01;;;;;;;9.43;6.60;;;13.80;97.50;;;;;;5079154;28;20029;-87
2021/09/02 04:33:27;;;;;;;13.23;6.45;;;13.80;97.40;;;;;;5111830;28;20530;-87
2021/09/02 04:35:53;;;;;;;13.02;7.32;;;13.70;97.50;;;;;;5086617;28;20102;-88
2021/09/02 04:38:20;;;;;;;11.75;7.30;;;13.70;97.50;;;;;;5104542;28;20387;-87
2021/09/02 04:40:47;;;;;;;11.65;6.80;;;13.70;97.50;;;;;;5078767;28;20107;-88
2021/09/02 04:43:13;;;;;;;13.50;7.22;;;13.70;97.60;;;;;;5094677;28;20032;-88
2021/09/02 04:45:39;;;;;;;11.73;7.40;;;13.60;97.70;;;;;;5084754;28;20073;-87
2021/09/02 04:48:19;;;;;;;14.75;6.60;;;13.70;97.70;;;;;;5098280;28;20038;-88
2021/09/02 04:50:48;;;;;;;12.52;6.72;;;13.70;97.70;;;;;;5082971;28;20028;-87
2021/09/02 04:53:14;;;;;;;10.57;6.30;;;13.70;97.60;;;;;;5097400;28;20055;-87
2021/09/02 04:55:40;;;;;;;13.98;6.82;;;13.70;97.90;;;;;;5116361;28;20093;-87
2021/09/02 04:58:07;;;;;;;12.77;6.97;;;13.70;97.60;;;;;;5087316;28;20050;-88
2021/09/02 05:00:35;;;;;;;10.73;6.68;;;13.70;97.60;;;;;;5096193;28;20357;-87
2021/09/02 05:03:00;;;;;;;11.82;7.18;;;13.70;97.50;;;;;;5094618;28;20031;-86
2021/09/02 05:05:26;;;;;;;14.00;6.90;;;13.70;97.50;;;;;;5078092;28;20361;-87
2021/09/02 05:07:52;;;;;;;10.85;7.07;;;13.60;97.50;;;;;;5086047;28;20051;-87
2021/09/02 05:10:18;;;;;;;11.77;6.40;;;13.60;97.60;;;;;;5085932;28;20415;-86
2021/09/02 05:12:43;;;;;;;11.40;6.72;;;13.60;97.60;;;;;;5093171;28;20031;-87
2021/09/02 05:15:09;;;;;;;12.07;6.72;;;13.70;97.60;;;;;;5080800;28;20526;-87
2021/09/02 05:17:35;;;;;;;10.32;6.30;;;13.70;97.60;;;;;;5110380;28;20047;-87
2021/09/02 05:20:00;;;;;;;12.30;6.55;;;13.70;97.60;;;;;;5077838;28;20032;-87
2021/09/02 05:22:26;;;;;;;12.98;7.22;;;13.70;97.50;;;;;;5084243;28;20028;-87
2021/09/02 05:24:52;;;;;;;12.65;6.97;;;13.60;97.50;;;;;;5094113;28;20062;-87
2021/09/02 05:27:18;;;;;;;13.80;7.30;;;13.60;97.60;;;;;;5107593;28;20031;-88
2021/09/02 05:29:43;;;;;;;11.68;6.57;;;13.60;97.60;;;;;;5091524;28;20524;-88
2021/09/02 05:32:09;;;;;;;12.77;6.90;;;13.60;97.70;;;;;;5084957;28;20062;-86
2021/09/02 05:34:35;;;;;;;12.15;6.95;;;13.60;97.60;;;;;;5091818;28;20057;-87
2021/09/02 05:37:01;;;;;;;12.23;7.43;;;13.60;97.60;;;;;;5096830;28;20034;-87
2021/09/02 05:39:27;;;;;;;11.35;7.28;;;13.60;97.70;;;;;;5081487;28;20028;-87
2021/09/02 05:41:53;;;;;;;15.52;7.85;;;13.60;97.80;;;;;;5103988;28;20047;-87
2021/09/02 05:44:19;;;;;;;11.80;7.22;;;13.60;97.80;;;;;;5084948;28;20114;-89
2021/09/02 05:46:45;;;;;;;17.15;7.35;;;13.60;97.80;;;;;;5092611;28;20058;-89
2021/09/02 05:49:10;;;;;;;11.85;7.13;;;13.60;97.90;;;;;;5079670;28;20517;-89
2021/09/02 05:51:36;;;;;;;13.02;7.63;;;13.60;98.00;;;;;;5091044;28;20404;-89
2021/09/02 05:54:01;;;;;;;12.35;7.10;;;13.60;97.90;;;;;;5086295;28;20019;-89
2021/09/02 05:56:27;;;;;;;11.85;7.00;;;13.60;98.20;;;;;;5096788;28;20496;-88
2021/09/02 05:58:53;;;;;;;16.15;7.35;;;13.60;98.00;;;;;;5081040;28;20032;-89
2021/09/02 06:01:18;;;;;;;11.57;7.00;;;13.70;98.00;;;;;;5093204;28;20028;-89
2021/09/02 06:03:44;;;;;;;9.82;6.55;;;13.60;98.00;;;;;;5083713;28;20049;-89
2021/09/02 06:06:10;;;;;;;15.65;7.40;;;13.70;98.00;;;;;;5086315;28;20077;-90
2021/09/02 06:08:35;;;;;;;10.95;6.82;;;13.70;98.00;;;;;;5090089;28;20376;-89
2021/09/02 06:11:03;;;;;;;12.43;6.53;;;13.70;98.00;;;;;;5080005;28;20158;-89
2021/09/02 06:13:33;;;;;;;11.35;7.28;;;13.70;98.10;;;;;;5109693;28;20032;-90
2021/09/02 06:16:00;;;;;;;14.95;7.20;;;13.70;98.20;;;;;;5085781;28;20487;-87
2021/09/02 06:18:25;;;;;;;12.60;7.30;;;13.70;98.20;;;;;;5084044;28;20031;-89
2021/09/02 06:20:51;;;;;;;11.90;6.55;;;13.80;98.20;;;;;;5092951;28;20020;-89
2021/09/02 06:23:17;;;;;;;11.15;6.55;;;13.80;98.20;;;;;;5079350;28;20542;-89
2021/09/02 06:25:43;;;;;;;9.02;5.75;;;13.90;98.20;;;;;;5096855;28;20023;-89
2021/09/02 06:28:08;;;;;;;10.95;6.50;;;13.90;98.20;;;;;;5085653;28;20035;-88
2021/09/02 06:30:34;;;;;;;12.30;6.63;;;14.00;98.20;;;;;;5107638;28;20532;-89
2021/09/02 06:33:00;;;;;;;10.70;6.18;;;14.00;98.20;;;;;;5079741;28;20124;-89
2021/09/02 06:35:26;;;;;;;10.05;6.18;;;14.00;98.20;;;;;;5092222;28;20094;-89
2021/09/02 06:37:51;;;;;;;10.70;5.72;;;14.00;98.20;;;;;;5084428;28;20031;-89
2021/09/02 06:40:17;;;;;;;11.32;6.03;;;14.10;98.10;;;;;;5086296;28;20091;-89
2021/09/02 06:42:42;;;;;;;10.15;6.22;;;14.10;98.00;;;;;;5081800;28;20032;-88
2021/09/02 06:45:09;;;;;;;11.38;5.97;;;14.10;97.90;;;;;;5110719;28;20076;-89
2021/09/02 06:47:36;;;;;;;10.93;5.50;;;14.20;98.00;;;;;;5099623;28;20027;-89
2021/09/02 06:50:02;;;;;;;9.60;5.63;;;14.20;98.00;;;;;;5086740;28;20020;-88
2021/09/02 06:52:28;;;;;;;9.93;5.28;;;14.30;98.20;;;;;;5082283;28;20503;-87
2021/09/02 06:54:53;;;;;;;9.27;5.57;;;14.30;98.20;;;;;;5092480;28;20027;-88
2021/09/02 06:57:19;;;;;;;8.38;5.22;;;14.30;98.10;;;;;;5092481;28;20031;-89
2021/09/02 06:59:44;;;;;;;8.65;5.35;;;14.30;98.10;;;;;;5083229;28;20028;-88
2021/09/02 07:02:10;;;;;;;9.55;5.05;;;14.40;98.10;;;;;;5102858;28;20035;-88
2021/09/02 07:04:35;;;;;;;8.90;5.30;;;14.40;98.10;;;;;;5107641;28;20032;-87
2021/09/02 07:07:01;;;;;;;10.13;5.43;;;14.50;98.10;;;;;;5079057;28;20028;-87
2021/09/02 07:09:27;;;;;;;9.05;5.03;;;14.50;97.90;;;;;;5108952;28;20025;-87
2021/09/02 07:11:52;;;;;;;10.50;5.47;;;14.60;97.70;;;;;;5083245;28;20391;-87
2021/09/02 07:14:18;;;;;;;8.15;5.22;;;14.70;97.60;;;;;;5101939;28;20437;-88
2021/09/02 07:16:44;;;;;;;10.25;5.00;;;14.60;97.50;;;;;;5108771;28;20059;-87
2021/09/02 07:19:10;;;;;;;7.55;4.90;;;14.70;97.60;;;;;;5094285;28;20077;-88
2021/09/02 07:21:36;;;;;;;8.65;5.20;;;14.70;97.50;;;;;;5081776;28;20027;-88
2021/09/02 07:24:01;;;;;;;9.00;5.28;;;14.70;97.50;;;;;;5086333;28;20058;-90
2021/09/02 07:26:27;;;;;;;7.72;5.18;;;14.80;97.50;;;;;;5091384;28;20031;-90
2021/09/02 07:28:53;;;;;;;8.10;4.95;;;14.90;97.20;;;;;;5092004;28;20024;-90
2021/09/02 07:31:18;;;;;;;9.35;4.90;;;14.90;97.10;;;;;;5077862;28;20485;-90
2021/09/02 07:33:44;;;;;;;7.95;5.15;;;15.00;97.10;;;;;;5088398;28;20028;-89
2021/09/02 07:36:09;;;;;;;8.93;4.75;;;15.00;97.00;;;;;;5085125;28;20032;-90
2021/09/02 07:38:35;;;;;;;8.93;4.75;;;15.00;97.00;;;;;;5081877;28;20078;-88
2021/09/02 07:41:01;;;;;;;6.60;4.72;;;15.10;97.10;;;;;;5092408;28;20061;-91
2021/09/02 07:43:28;;;;;;;9.30;5.05;;;15.10;97.20;;;;;;5079420;28;20468;-90
2021/09/02 07:45:53;;;;;;;8.48;4.78;;;15.10;97.00;;;;;;5087400;28;20055;-90
2021/09/02 07:48:19;;;;;;;12.07;4.70;;;15.20;96.90;;;;;;5086873;28;20027;-90
2021/09/02 07:50:45;;;;;;;8.68;4.65;;;15.20;96.90;;;;;;5079937;28;20469;-89
2021/09/02 07:53:10;;;;;;;6.10;4.50;;;15.30;97.00;;;;;;5083939;28;20489;-90
2021/09/02 07:55:36;;;;;;;8.68;4.55;;;15.40;96.90;;;;;;5113788;28;20023;-90
2021/09/02 07:58:01;;;;;;;8.40;4.28;;;15.40;97.10;;;;;;5086239;28;20032;-90
2021/09/02 08:00:27;;;;;;;8.77;4.90;;;15.40;96.70;;;;;;5087997;28;20055;-90
2021/09/02 08:02:53;;;;;;;6.95;4.43;;;15.50;96.50;;;;;;5079152;28;20031;-91
2021/09/02 08:05:18;;;;;;;6.45;4.18;;;15.50;96.40;;;;;;5074849;28;20039;-90
2021/09/02 08:07:53;;;;;;;9.60;4.60;;;15.60;96.30;;;;;;5082398;28;20114;-88
2021/09/02 08:10:21;;;;;;;10.68;4.60;;;15.50;96.40;;;;;;5083028;28;20047;-88
2021/09/02 08:12:47;;;;;;;7.28;4.00;;;15.60;96.20;;;;;;5090599;28;20036;-85
2021/09/02 08:15:13;;;;;;;6.70;4.00;;;15.60;96.20;;;;;;5078447;28;20027;-84
2021/09/02 08:17:40;;;;;;;6.35;4.28;;;15.70;96.20;;;;;;5088783;28;20074;-85
2021/09/02 08:20:07;;;;;;;9.27;3.90;;;15.80;96.00;;;;;;5084525;28;20111;-84
2021/09/02 08:22:33;;;;;;;7.10;3.95;;;15.80;96.20;;;;;;5081345;28;20028;-86
2021/09/02 08:24:59;;;;;;;5.78;3.90;;;15.80;96.30;;;;;;5092511;28;20031;-86
2021/09/02 08:27:25;;;;;;;5.80;3.72;;;15.90;96.60;;;;;;5090727;28;20032;-86
2021/09/02 08:29:52;;;;;;;7.05;4.15;;;16.00;96.10;;;;;;5075067;28;20055;-86
2021/09/02 08:32:18;;;;;;;5.03;3.70;;;16.00;95.30;;;;;;5087657;28;20103;-86
2021/09/02 08:34:44;;;;;;;6.75;4.00;;;16.10;95.40;;;;;;5083757;28;20020;-86
2021/09/02 08:37:10;;;;;;;5.75;3.95;;;16.20;95.60;;;;;;5112977;28;20456;-86
2021/09/02 08:39:36;;;;;;;5.30;3.50;;;16.30;95.00;;;;;;5102308;28;20049;-85
2021/09/02 08:42:03;;;;;;;10.68;4.25;;;16.30;94.80;;;;;;5089685;28;20073;-86
2021/09/02 08:44:29;;;;;;;7.10;3.63;;;16.40;94.90;;;;;;5091265;28;20028;-85
2021/09/02 08:46:55;;;;;;;6.63;3.67;;;16.50;95.20;;;;;;5082083;28;20027;-85
2021/09/02 08:49:23;;;;;;;6.85;3.92;;;16.60;95.20;;;;;;5098102;28;20019;-87
2021/09/02 08:51:50;;;;;;;6.20;3.60;;;16.60;94.90;;;;;;5090576;28;20032;-86
2021/09/02 08:54:17;;;;;;;5.55;3.38;;;16.60;94.90;;;;;;5076298;28;20067;-86
2021/09/02 08:56:43;;;;;;;7.35;4.10;;;16.70;94.20;;;;;;5078171;28;20032;-86
2021/09/02 08:59:09;;;;;;;6.38;3.75;;;16.80;94.70;;;;;;5112600;28;20081;-86
2021/09/02 09:01:35;;;;;;;6.15;3.97;;;16.80;94.50;;;;;;5101299;28;20016;-85
2021/09/02 09:04:10;;;;;;;6.25;3.67;;;16.80;94.30;;;;;;5105958;28;20016;-84
2021/09/02 09:06:36;;;;;;;8.15;3.95;;;16.90;94.00;;;;;;5086947;28;20024;-83
2021/09/02 09:09:11;;;;;;;7.05;3.67;;;16.90;94.20;;;;;;5091942;28;20093;-85
2021/09/02 09:11:49;;;;;;;6.28;3.70;;;16.90;94.30;;;;;;5088410;28;20027;-84
2021/09/02 09:14:24;;;;;;;6.88;3.97;;;17.10;94.20;;;;;;5104529;28;20020;-86
2021/09/02 09:16:51;;;;;;;6.25;4.00;;;17.10;93.70;;;;;;5093275;28;20084;-84
2021/09/02 09:19:36;;;;;;;7.80;3.50;;;17.20;94.20;;;;;;5101890;28;20035;-85
2021/09/02 09:22:03;;;;;;;5.93;3.67;;;17.20;94.30;;;;;;5088479;28;20033;-88
2021/09/02 09:24:56;;;;;;;5.60;4.22;;;17.20;93.70;;;;;;5081248;28;20401;-87
2021/09/02 09:27:38;;;;;;;5.82;3.42;;;17.30;94.10;;;;;;5100977;28;20456;-84
2021/09/02 09:30:07;;;;;;;;;;;17.40;93.50;;;;;;5078244;28;20461;-90
2021/09/02 09:32:56;;;;;;;5.90;3.33;;;17.40;93.30;;;;;;5090924;28;19935;-86
2021/09/02 09:35:30;;;;;;;6.50;3.63;;;17.50;93.10;;;;;;5073888;28;20476;-86
2021/09/02 09:38:22;;;;;;;8.02;4.07;;;17.60;93.60;;;;;;5089465;28;20128;-87
2021/09/02 09:40:50;;;;;;;5.47;3.67;;;17.60;93.40;;;;;;5093082;28;20020;-87
2021/09/02 09:43:20;;;;;;;5.88;3.72;;;17.60;93.10;;;;;;5079732;28;20039;-88
2021/09/02 09:45:51;;;;;;;5.00;3.60;;;17.70;93.10;;;;;;5090731;28;20024;-87
2021/09/02 09:48:17;;;;;;;6.05;3.25;;;17.70;93.00;;;;;;5088603;28;20537;-84
2021/09/02 09:50:44;;;;;;;7.03;3.83;;;17.90;93.40;;;;;;5082119;28;20040;-84
2021/09/02 09:53:27;;;;;;;4.53;3.40;;;18.00;93.00;;;;;;5094888;28;20076;-83
2021/09/02 09:55:53;;;;;;;7.88;3.70;;;18.00;91.60;;;;;;5089205;28;20020;-84
2021/09/02 09:58:22;;;;;;;4.88;3.03;;;18.20;91.20;;;;;;5088160;28;20027;-84
2021/09/02 10:00:50;;;;;;;5.90;4.20;;;18.20;90.80;;;;;;5083187;28;20032;-84
2021/09/02 10:03:16;;;;;;;6.60;3.55;;;18.30;91.40;;;;;;5097538;28;20023;-84
2021/09/02 10:05:42;;;;;;;6.57;3.55;;;18.40;91.50;;;;;;5115250;28;20027;-86
2021/09/02 10:08:09;;;;;;;5.25;3.05;;;18.40;91.70;;;;;;5113391;28;20020;-85
2021/09/02 10:10:34;;;;;;;5.07;3.38;;;18.50;91.10;;;;;;5083097;28;20473;-85
2021/09/02 10:13:01;;;;;;;7.97;4.00;;;18.60;91.40;;;;;;5076884;28;20039;-84
2021/09/02 10:15:30;;;;;;;5.95;3.33;;;18.60;91.60;;;;;;5090256;28;20024;-87
2021/09/02 10:17:58;;;;;;;6.50;3.70;;;18.60;91.30;;;;;;5084877;28;20604;-85
2021/09/02 10:20:26;;;;;;;5.35;3.15;;;18.70;91.50;;;;;;5084826;28;20385;-85
2021/09/02 10:22:58;;;;;;;6.93;3.20;;;18.80;90.60;;;;;;5077196;28;20029;-83
2021/09/02 10:25:29;;;;;;;;;;;18.90;90.30;;;;;;5073395;28;20036;-85
2021/09/02 10:28:02;;;;;;;5.60;3.17;;;19.00;90.90;;;;;;5081553;28;20007;-85
2021/09/02 10:30:30;;;;;;;5.03;2.85;;;19.10;89.00;;;;;;5082956;28;20093;-86
2021/09/02 10:32:58;;;;;;;5.18;3.20;;;19.10;89.40;;;;;;5094859;28;20032;-89
2021/09/02 10:35:31;;;;;;;4.50;3.25;;;19.20;90.20;;;;;;5077918;28;20021;-91
2021/09/02 10:37:56;;;;;;;7.22;3.08;;;19.20;88.80;;;;;;5086209;28;20052;-91
2021/09/02 10:40:22;;;;;;;4.53;3.05;;;19.30;90.20;;;;;;5086020;28;20059;-90
2021/09/02 10:42:50;;;;;;;7.13;3.72;;;19.40;89.90;;;;;;5078526;28;20025;-91
2021/09/02 10:45:25;;;;;;;6.20;3.60;;;19.50;87.50;;;;;;5075144;28;20027;-91
2021/09/02 10:47:51;;;;;;;6.28;3.53;;;19.60;87.40;;;;;;5086342;28;20082;-91
2021/09/02 10:50:20;;;;;;;6.90;3.10;;;19.70;87.20;;;;;;5083997;28;20480;-91
2021/09/02 10:52:46;;;;;;;4.55;3.08;;;19.80;85.70;;;;;;5078272;28;20116;-91
2021/09/02 10:55:30;;;;;;;5.43;3.17;;;19.80;86.00;;;;;;5091869;28;20055;-90
2021/09/02 10:57:58;;;;;;;4.75;2.60;;;19.80;85.50;;;;;;5084466;28;20058;-90
2021/09/02 11:00:37;;;;;;;4.82;3.25;;;19.90;85.00;;;;;;5073321;28;20055;-89
2021/09/02 11:03:19;;;;;;;5.18;3.38;;;20.10;83.80;;;;;;5073772;28;20081;-88
2021/09/02 11:05:53;;;;;;;4.85;3.20;;;20.20;83.20;;;;;;5085893;28;20032;-89
2021/09/02 11:08:38;;;;;;;5.03;2.92;;;20.20;82.70;;;;;;5083752;28;20070;-90
2021/09/02 11:11:36;;;;;;;5.07;3.30;;;20.30;81.40;;;;;;5073259;28;20029;-83
2021/09/02 11:14:02;;;;;;;4.70;3.15;;;20.40;79.50;;;;;;5036865;28;20048;-83
2021/09/02 11:16:35;;;;;;;6.88;3.50;;;20.40;79.20;;;;;;5083996;28;20544;-91
2021/09/02 11:19:01;;;;;;;7.82;3.40;;;20.40;80.20;;;;;;5092504;28;20498;-90
2021/09/02 11:21:28;;;;;;;6.57;3.33;;;20.50;81.10;;;;;;5097479;28;20106;-91
2021/09/02 11:23:59;;;;;;;4.65;2.95;;;20.50;80.90;;;;;;5087702;28;20028;-89
2021/09/02 11:26:43;;;;;;;6.07;3.20;;;20.60;75.80;;;;;;5075073;28;20028;-90
2021/09/02 11:29:20;;;;;;;5.05;2.78;;;20.60;78.10;;;;;;5092623;28;20039;-89
2021/09/02 11:32:11;;;;;;;5.78;3.40;;;20.80;78.10;;;;;;5100580;28;20038;-90
2021/09/02 11:34:37;;;;;;;5.82;2.70;;;20.90;76.40;;;;;;5081292;28;20032;-91
2021/09/02 11:37:04;;;;;;;4.78;3.38;;;21.00;77.70;;;;;;5110358;28;20028;-89
2021/09/02 11:39:35;;;;;;;4.47;2.70;;;21.00;77.30;;;;;;5097865;28;20038;-87
2021/09/02 11:42:10;;;;;;;5.05;2.90;;;21.00;75.40;;;;;;5086736;28;20073;-87
2021/09/02 11:44:38;;;;;;;4.93;3.03;;;21.10;75.80;;;;;;5088785;28;20049;-88
2021/09/02 11:47:11;;;;;;;4.85;3.05;;;21.10;75.00;;;;;;5078923;28;20051;-88
2021/09/02 11:49:37;;;;;;;5.00;3.00;;;21.20;73.50;;;;;;5089770;28;20107;-87
2021/09/02 11:52:05;;;;;;;4.05;2.70;;;21.30;72.00;;;;;;5102500;28;20030;-89
2021/09/02 11:54:33;;;;;;;4.43;2.55;;;21.30;72.60;;;;;;5094619;28;20472;-91
2021/09/02 11:56:59;;;;;;;6.43;3.20;;;21.30;73.00;;;;;;5095058;28;20032;-90
2021/09/02 11:59:25;;;;;;;5.47;2.65;;;21.30;72.00;;;;;;5097111;28;20117;-89
2021/09/02 12:01:52;;;;;;;4.28;2.63;;;21.30;72.70;;;;;;5087771;28;20166;-88
2021/09/02 12:04:28;;;;;;;5.30;2.72;;;21.40;72.60;;;;;;5085990;28;20026;-89
2021/09/02 12:06:55;;;;;;;5.35;2.65;;;21.50;71.90;;;;;;5080666;28;20031;-88
2021/09/02 12:09:24;;;;;;;4.88;3.05;;;21.50;72.30;;;;;;5082841;28;20024;-89
2021/09/02 12:11:50;;;;;;;4.15;2.67;;;21.70;72.60;;;;;;5091658;28;20028;-90
2021/09/02 12:14:22;;;;;;;4.63;2.72;;;21.80;71.50;;;;;;5107568;28;20016;-90
2021/09/02 12:17:09;;;;;;;4.72;2.90;;;21.90;71.30;;;;;;5101316;28;20491;-89
2021/09/02 12:19:55;;;;;;;5.07;2.83;;;22.20;71.20;;;;;;5084745;28;20124;-90
2021/09/02 12:22:28;;;;;;;4.63;2.90;;;22.30;70.40;;;;;;5087036;28;20113;-90
2021/09/02 12:24:53;;;;;;;4.43;3.08;;;22.50;70.20;;;;;;5095614;28;20027;-91
2021/09/02 12:27:39;;;;;;;6.45;2.92;;;22.70;70.60;;;;;;5095357;28;20127;-86
2021/09/02 12:30:05;;;;;;;5.22;2.80;;;22.80;67.80;;;;;;5088705;28;20119;-90
2021/09/02 12:32:30;;;;;;;3.55;2.63;;;22.90;67.00;;;;;;5085039;28;20113;-90
2021/09/02 12:35:17;;;;;;;4.35;2.95;;;23.10;66.70;;;;;;5095358;28;20019;-90
2021/09/02 12:37:43;;;;;;;3.83;2.67;;;23.20;65.60;;;;;;5085362;28;20118;-88
2021/09/02 12:40:19;;;;;;;4.53;2.83;;;23.30;65.70;;;;;;5088587;28;20028;-89
2021/09/02 12:42:45;;;;;;;4.50;3.10;;;23.50;64.80;;;;;;5093734;28;20027;-87
2021/09/02 12:45:27;;;;;;;3.50;2.70;;;23.70;66.20;;;;;;5081807;28;20024;-88
2021/09/02 12:48:02;;;;;;;;;;;23.90;64.90;;;;;;5091215;28;20024;-89
2021/09/02 12:50:29;;;;;;;5.63;2.60;;;24.10;63.90;;;;;;5090910;28;19907;-90